Time;durP1;ratioP1;P1;durP2;ratioP2;P2;SDS_P1;SDS_P2;PMS_P1;PMS_P2;Temp;Humidity;BMP_temperature;BMP_pressure;BME280_temperature;BME280_humidity;BME280_pressure;Samples;Min_cycle;Max_cycle;Signal;HPM_P1;HPM_P2
2023/03/30 00:01:10;;;;;;;1.70;1.60;;;;;;;;;;5047827;28;20226;-87
2023/03/30 00:03:38;;;;;;;1.42;1.33;;;;;;;;;;5054710;28;20293;-87
2023/03/30 00:06:07;;;;;;;1.23;1.13;;;;;;;;;;5053474;28;20233;-87
2023/03/30 00:08:59;;;;;;;1.60;1.50;;;;;;;;;;5038325;28;20236;-87
2023/03/30 00:11:27;;;;;;;1.30;1.20;;;;;;;;;;5050946;28;20197;-87
2023/03/30 00:13:55;;;;;;;1.67;1.58;;;;;;;;;;5049429;28;20253;-87
2023/03/30 00:16:22;;;;;;;1.65;1.40;;;;;;;;;;5053251;28;20194;-87
2023/03/30 00:18:50;;;;;;;1.45;1.35;;;;;;;;;;5048391;28;20714;-87
2023/03/30 00:21:20;;;;;;;2.28;1.85;;;;;;;;;;5046922;28;20296;-87
2023/03/30 00:23:47;;;;;;;1.35;1.25;;;;;;;;;;5054992;28;20226;-87
2023/03/30 00:26:17;;;;;;;1.35;1.25;;;;;;;;;;5055469;28;20716;-87
2023/03/30 00:28:45;;;;;;;2.15;1.42;;;;;;;;;;5055296;28;20201;-87
2023/03/30 00:31:12;;;;;;;2.25;1.80;;;;;;;;;;5055454;28;20202;-87
2023/03/30 00:33:40;;;;;;;2.95;1.70;;;;;;;;;;5043012;28;20226;-87
2023/03/30 00:36:08;;;;;;;1.42;1.33;;;;;;;;;;5035437;28;20594;-87
2023/03/30 00:38:36;;;;;;;1.83;1.63;;;;;;;;;;5035225;28;20644;-88
2023/03/30 00:41:11;;;;;;;1.40;1.30;;;;;;;;;;5045884;28;20318;-87
2023/03/30 00:44:00;;;;;;;1.95;1.60;;;;;;;;;;5049350;28;20223;-87
2023/03/30 00:46:29;;;;;;;2.67;1.52;;;;;;;;;;5054613;28;20214;-87
2023/03/30 00:48:58;;;;;;;1.48;1.27;;;;;;;;;;5054348;28;20252;-87
2023/03/30 00:51:27;;;;;;;1.50;1.40;;;;;;;;;;5057285;28;20277;-87
2023/03/30 00:53:59;;;;;;;1.70;1.50;;;;;;;;;;5055057;28;20224;-87
2023/03/30 00:56:30;;;;;;;1.40;1.30;;;;;;;;;;5041714;28;20212;-87
2023/03/30 00:58:59;;;;;;;1.77;1.67;;;;;;;;;;5046110;28;20657;-87
2023/03/30 01:01:27;;;;;;;1.20;1.00;;;;;;;;;;5051303;28;20286;-87
2023/03/30 01:03:58;;;;;;;1.42;1.08;;;;;;;;;;5053151;28;20251;-87
2023/03/30 01:06:28;;;;;;;1.17;1.08;;;;;;;;;;5043687;28;20217;-87
2023/03/30 01:08:57;;;;;;;1.52;1.40;;;;;;;;;;5054028;28;20541;-87
2023/03/30 01:11:25;;;;;;;1.80;1.60;;;;;;;;;;5044347;28;20639;-87
2023/03/30 01:14:00;;;;;;;3.13;1.48;;;;;;;;;;5043652;28;20219;-87
2023/03/30 01:16:32;;;;;;;1.23;1.20;;;;;;;;;;5059415;28;20196;-87
2023/03/30 01:19:18;;;;;;;1.95;1.35;;;;;;;;;;5052803;28;20198;-87
2023/03/30 01:22:06;;;;;;;1.23;1.13;;;;;;;;;;5047585;28;20204;-87
2023/03/30 01:25:32;;;;;;;1.92;1.40;;;;;;;;;;5073263;22;20229;-81
2023/03/30 01:28:24;;;;;;;1.20;1.10;;;;;;;;;;4979600;28;20822;-83
2023/03/30 01:31:33;;;;;;;1.30;1.20;;;;;;;;;;5057384;28;20198;-81
2023/03/30 01:34:33;;;;;;;1.50;1.40;;;;;;;;;;5063067;28;20216;-80
2023/03/30 01:37:58;;;;;;;1.40;1.30;;;;;;;;;;5071284;22;20257;-87
2023/03/30 01:40:29;;;;;;;1.70;1.60;;;;;;;;;;4993286;28;20201;-86
2023/03/30 01:43:00;;;;;;;3.13;1.52;;;;;;;;;;5039574;28;20322;-86
2023/03/30 01:45:36;;;;;;;1.48;1.38;;;;;;;;;;5034620;28;20251;-86
2023/03/30 01:48:10;;;;;;;1.60;1.50;;;;;;;;;;5050476;28;20225;-87
2023/03/30 01:50:41;;;;;;;1.92;1.75;;;;;;;;;;5053310;28;20280;-85
2023/03/30 01:53:16;;;;;;;1.50;1.40;;;;;;;;;;5053740;28;20678;-86
2023/03/30 01:55:49;;;;;;;2.25;2.00;;;;;;;;;;5053698;28;20236;-86
2023/03/30 01:58:23;;;;;;;2.50;1.38;;;;;;;;;;5054153;28;20689;-86
2023/03/30 02:00:52;;;;;;;1.48;1.38;;;;;;;;;;5048764;28;20623;-86
2023/03/30 02:03:22;;;;;;;1.58;1.48;;;;;;;;;;5051520;28;22053;-86
2023/03/30 02:05:53;;;;;;;2.15;1.90;;;;;;;;;;5049318;28;20637;-86
2023/03/30 02:08:24;;;;;;;1.30;1.20;;;;;;;;;;5053068;28;20228;-87
2023/03/30 02:10:54;;;;;;;2.28;1.65;;;;;;;;;;5053091;28;20197;-86
2023/03/30 02:13:23;;;;;;;2.03;1.50;;;;;;;;;;5052986;28;20217;-86
2023/03/30 02:15:55;;;;;;;1.50;1.30;;;;;;;;;;5051642;28;20283;-86
2023/03/30 02:18:24;;;;;;;1.95;1.50;;;;;;;;;;5052775;28;20571;-86
2023/03/30 02:20:52;;;;;;;1.73;1.40;;;;;;;;;;5051387;28;20193;-86
2023/03/30 02:23:22;;;;;;;3.42;1.55;;;;;;;;;;5053150;28;20304;-86
2023/03/30 02:25:49;;;;;;;2.17;1.98;;;;;;;;;;5053438;28;20222;-86
2023/03/30 02:28:18;;;;;;;1.58;1.48;;;;;;;;;;5053118;28;20201;-85
2023/03/30 02:30:46;;;;;;;1.70;1.60;;;;;;;;;;5053358;28;20277;-86
2023/03/30 02:33:23;;;;;;;3.00;1.50;;;;;;;;;;5052623;28;20213;-86
2023/03/30 02:36:05;;;;;;;1.38;1.27;;;;;;;;;;5053194;28;20652;-86
2023/03/30 02:39:00;;;;;;;1.60;1.50;;;;;;;;;;5052671;28;20300;-86
2023/03/30 02:41:45;;;;;;;1.50;1.40;;;;;;;;;;5053379;28;20186;-85
2023/03/30 02:44:22;;;;;;;2.53;2.00;;;;;;;;;;5052932;28;20226;-86
2023/03/30 02:47:00;;;;;;;1.60;1.50;;;;;;;;;;5053038;28;20216;-87
2023/03/30 02:49:41;;;;;;;1.50;1.30;;;;;;;;;;5051337;28;20588;-86
2023/03/30 02:52:15;;;;;;;1.10;1.10;;;;;;;;;;5053324;28;20280;-86
2023/03/30 02:54:50;;;;;;;3.78;1.13;;;;;;;;;;5052848;28;20574;-87
2023/03/30 02:57:32;;;;;;;2.42;1.35;;;;;;;;;;5051828;28;20665;-87
2023/03/30 03:00:07;;;;;;;1.65;1.52;;;;;;;;;;5052495;28;20645;-86
2023/03/30 03:02:39;;;;;;;1.33;1.20;;;;;;;;;;5052828;28;20239;-86
2023/03/30 03:05:08;;;;;;;2.30;1.50;;;;;;;;;;5044026;28;20678;-86
2023/03/30 03:07:37;;;;;;;2.22;1.50;;;;;;;;;;5045253;28;20228;-87
2023/03/30 03:10:06;;;;;;;2.35;1.38;;;;;;;;;;5045486;28;20217;-87
2023/03/30 03:12:34;;;;;;;2.00;1.80;;;;;;;;;;5047624;28;20198;-86
2023/03/30 03:15:04;;;;;;;1.40;1.30;;;;;;;;;;5056833;28;20285;-86
2023/03/30 03:17:33;;;;;;;2.05;1.50;;;;;;;;;;5049207;28;20673;-86
2023/03/30 03:20:01;;;;;;;1.92;1.48;;;;;;;;;;5052156;28;20225;-86
2023/03/30 03:22:28;;;;;;;2.22;1.75;;;;;;;;;;5056222;28;20207;-86
2023/03/30 03:24:56;;;;;;;2.22;1.50;;;;;;;;;;5051799;28;20281;-86
2023/03/30 03:27:24;;;;;;;1.70;1.60;;;;;;;;;;5050334;28;20217;-87
2023/03/30 03:29:51;;;;;;;2.30;1.30;;;;;;;;;;5039883;28;20234;-86
2023/03/30 03:32:20;;;;;;;2.97;1.77;;;;;;;;;;5054293;28;20589;-86
2023/03/30 03:34:48;;;;;;;2.05;1.40;;;;;;;;;;5048195;28;20269;-86
2023/03/30 03:37:15;;;;;;;3.65;1.63;;;;;;;;;;5044538;28;20220;-87
2023/03/30 03:39:43;;;;;;;2.55;1.60;;;;;;;;;;5055446;28;20612;-86
2023/03/30 03:42:10;;;;;;;2.53;2.03;;;;;;;;;;5056618;28;20623;-86
2023/03/30 03:44:39;;;;;;;2.28;2.08;;;;;;;;;;5056178;28;20296;-86
2023/03/30 03:47:07;;;;;;;1.95;1.20;;;;;;;;;;5049952;28;20225;-87
2023/03/30 03:49:35;;;;;;;2.95;2.35;;;;;;;;;;5048023;28;20614;-86
2023/03/30 03:52:03;;;;;;;1.30;1.17;;;;;;;;;;5051527;28;20225;-87
2023/03/30 03:54:30;;;;;;;3.47;1.40;;;;;;;;;;5055737;28;20228;-86
2023/03/30 03:56:58;;;;;;;4.70;1.48;;;;;;;;;;5055978;28;20233;-86
2023/03/30 03:59:25;;;;;;;2.90;1.60;;;;;;;;;;5047618;28;20285;-86
2023/03/30 04:01:53;;;;;;;1.73;1.63;;;;;;;;;;5056706;28;20664;-86
2023/03/30 04:04:20;;;;;;;3.28;3.05;;;;;;;;;;5047089;28;20664;-86
2023/03/30 04:06:50;;;;;;;1.70;1.42;;;;;;;;;;5044276;28;20232;-85
2023/03/30 04:09:18;;;;;;;1.73;1.63;;;;;;;;;;5056518;28;20556;-86
2023/03/30 04:11:45;;;;;;;2.17;1.63;;;;;;;;;;5057452;28;20202;-87
2023/03/30 04:14:12;;;;;;;1.38;1.27;;;;;;;;;;5054486;28;20367;-86
2023/03/30 04:16:40;;;;;;;4.57;2.20;;;;;;;;;;5041108;28;20230;-87
2023/03/30 04:19:11;;;;;;;1.75;1.60;;;;;;;;;;5055379;28;20285;-86
2023/03/30 04:21:45;;;;;;;1.90;1.80;;;;;;;;;;5049203;28;20701;-86
2023/03/30 04:24:14;;;;;;;5.18;1.92;;;;;;;;;;5054258;28;20230;-87
2023/03/30 04:26:47;;;;;;;1.80;1.50;;;;;;;;;;5036280;28;20322;-86
2023/03/30 04:29:16;;;;;;;2.20;1.60;;;;;;;;;;5056719;28;20220;-86
2023/03/30 04:31:45;;;;;;;2.63;1.90;;;;;;;;;;5056338;28;20372;-86
2023/03/30 04:34:13;;;;;;;2.13;1.55;;;;;;;;;;5055752;28;20240;-86
2023/03/30 04:36:42;;;;;;;2.97;2.13;;;;;;;;;;5055891;28;20210;-87
2023/03/30 04:39:10;;;;;;;2.60;1.63;;;;;;;;;;5054520;28;20202;-86
2023/03/30 04:41:40;;;;;;;2.17;2.00;;;;;;;;;;5055217;28;20212;-86
2023/03/30 04:44:09;;;;;;;3.60;2.00;;;;;;;;;;5056142;28;20310;-86
2023/03/30 04:46:39;;;;;;;2.45;1.42;;;;;;;;;;5052258;28;20194;-86
2023/03/30 04:49:07;;;;;;;2.47;1.60;;;;;;;;;;5044417;28;20257;-86
2023/03/30 04:51:36;;;;;;;3.25;1.65;;;;;;;;;;5054943;28;20666;-86
2023/03/30 04:54:03;;;;;;;3.42;1.98;;;;;;;;;;5055015;28;20313;-86
2023/03/30 04:56:31;;;;;;;3.25;1.83;;;;;;;;;;5055331;28;20294;-87
2023/03/30 04:59:00;;;;;;;3.83;1.98;;;;;;;;;;5055557;28;20284;-87
2023/03/30 05:01:27;;;;;;;1.40;1.30;;;;;;;;;;5054804;28;20189;-86
2023/03/30 05:03:55;;;;;;;2.97;2.67;;;;;;;;;;5054446;28;20297;-87
2023/03/30 05:06:22;;;;;;;2.10;1.42;;;;;;;;;;5046930;28;20198;-86
2023/03/30 05:08:50;;;;;;;2.45;1.50;;;;;;;;;;5044716;28;20246;-86
2023/03/30 05:11:18;;;;;;;2.72;1.88;;;;;;;;;;5035985;28;20604;-87
2023/03/30 05:13:46;;;;;;;2.17;1.70;;;;;;;;;;5041742;28;20220;-87
2023/03/30 05:16:14;;;;;;;3.30;1.45;;;;;;;;;;5052630;28;20208;-87
2023/03/30 05:18:42;;;;;;;2.53;1.70;;;;;;;;;;5042406;28;20190;-86
2023/03/30 05:21:10;;;;;;;2.20;1.77;;;;;;;;;;5036946;28;20267;-87
2023/03/30 05:23:38;;;;;;;3.15;1.60;;;;;;;;;;5054145;28;20313;-86
2023/03/30 05:26:06;;;;;;;2.28;1.45;;;;;;;;;;5055228;28;20710;-87
2023/03/30 05:28:34;;;;;;;1.58;1.42;;;;;;;;;;5054338;28;20285;-87
2023/03/30 05:31:01;;;;;;;2.65;1.60;;;;;;;;;;5050201;28;20220;-86
2023/03/30 05:33:30;;;;;;;2.47;1.67;;;;;;;;;;5053369;28;20228;-87
2023/03/30 05:35:58;;;;;;;4.00;2.67;;;;;;;;;;5054253;28;20646;-86
2023/03/30 05:38:26;;;;;;;2.17;1.42;;;;;;;;;;5048383;28;20201;-87
2023/03/30 05:41:00;;;;;;;1.67;1.58;;;;;;;;;;5053406;28;20204;-87
2023/03/30 05:43:28;;;;;;;2.22;1.63;;;;;;;;;;5048376;28;20400;-86
2023/03/30 05:45:55;;;;;;;2.97;1.92;;;;;;;;;;5053834;28;20228;-86
2023/03/30 05:48:23;;;;;;;2.88;1.63;;;;;;;;;;5053602;28;20279;-86
2023/03/30 05:50:52;;;;;;;4.93;1.50;;;;;;;;;;5053320;28;20194;-87
2023/03/30 05:53:19;;;;;;;3.53;1.60;;;;;;;;;;5053260;28;20694;-87
2023/03/30 05:55:47;;;;;;;1.92;1.40;;;;;;;;;;5053339;28;20285;-87
2023/03/30 05:58:16;;;;;;;2.95;1.92;;;;;;;;;;5053851;28;20202;-86
2023/03/30 06:00:47;;;;;;;1.50;1.40;;;;;;;;;;5053584;28;20226;-86
2023/03/30 06:03:15;;;;;;;3.55;1.88;;;;;;;;;;5052269;28;20253;-86
2023/03/30 06:05:43;;;;;;;4.72;1.50;;;;;;;;;;5045921;28;20240;-86
2023/03/30 06:08:12;;;;;;;3.03;1.65;;;;;;;;;;5051991;28;20222;-87
2023/03/30 06:10:40;;;;;;;1.75;1.30;;;;;;;;;;5052453;28;20639;-87
2023/03/30 06:13:08;;;;;;;4.32;3.17;;;;;;;;;;5049495;28;20313;-86
2023/03/30 06:15:35;;;;;;;2.90;1.58;;;;;;;;;;5052169;28;20289;-87
2023/03/30 06:18:03;;;;;;;1.67;1.45;;;;;;;;;;5033295;28;20202;-87
2023/03/30 06:20:31;;;;;;;3.22;1.65;;;;;;;;;;5032790;28;20205;-87
2023/03/30 06:22:58;;;;;;;2.00;1.60;;;;;;;;;;5032911;28;20317;-87
2023/03/30 06:25:29;;;;;;;2.92;1.85;;;;;;;;;;5046290;28;20208;-87
2023/03/30 06:28:08;;;;;;;1.77;1.50;;;;;;;;;;5045601;28;20666;-87
2023/03/30 06:30:36;;;;;;;2.63;1.58;;;;;;;;;;5048474;28;20639;-87
2023/03/30 06:33:04;;;;;;;3.72;2.00;;;;;;;;;;5049215;28;20313;-88
2023/03/30 06:35:43;;;;;;;4.88;2.58;;;;;;;;;;5036805;28;20198;-87
2023/03/30 06:38:11;;;;;;;3.40;1.88;;;;;;;;;;5052993;28;20205;-86
2023/03/30 06:40:40;;;;;;;2.05;1.60;;;;;;;;;;5052423;28;20292;-87
2023/03/30 06:43:18;;;;;;;2.08;1.60;;;;;;;;;;5053214;28;20312;-88
2023/03/30 06:45:51;;;;;;;2.70;1.33;;;;;;;;;;5040020;28;20194;-87
2023/03/30 06:48:19;;;;;;;3.05;2.22;;;;;;;;;;5036388;28;20213;-87
2023/03/30 06:50:48;;;;;;;1.73;1.40;;;;;;;;;;5052989;28;20209;-86
2023/03/30 06:53:15;;;;;;;3.95;2.10;;;;;;;;;;5052986;28;20252;-88
2023/03/30 06:55:44;;;;;;;3.90;1.75;;;;;;;;;;5052218;28;20202;-86
2023/03/30 06:58:12;;;;;;;2.60;2.15;;;;;;;;;;5052559;28;20685;-87
2023/03/30 07:00:39;;;;;;;2.00;1.70;;;;;;;;;;5050183;28;20232;-87
2023/03/30 07:03:07;;;;;;;2.58;1.52;;;;;;;;;;5048882;28;20257;-87
2023/03/30 07:05:35;;;;;;;1.42;1.33;;;;;;;;;;5042042;28;20655;-87
2023/03/30 07:08:03;;;;;;;4.25;2.67;;;;;;;;;;5052477;28;20293;-87
2023/03/30 07:10:45;;;;;;;2.08;1.90;;;;;;;;;;5048863;28;20261;-86
2023/03/30 07:13:15;;;;;;;1.98;1.63;;;;;;;;;;5049732;28;20221;-87
2023/03/30 07:15:42;;;;;;;1.88;1.65;;;;;;;;;;5053103;28;20741;-87
2023/03/30 07:18:19;;;;;;;2.03;1.83;;;;;;;;;;5052285;28;20572;-88
2023/03/30 07:20:47;;;;;;;2.75;1.48;;;;;;;;;;5038404;28;20593;-86
2023/03/30 07:23:15;;;;;;;3.83;2.00;;;;;;;;;;5052515;28;20769;-87
2023/03/30 07:25:45;;;;;;;2.78;1.90;;;;;;;;;;5052740;28;20251;-87
2023/03/30 07:28:13;;;;;;;1.77;1.67;;;;;;;;;;5052930;28;20259;-87
2023/03/30 07:30:43;;;;;;;4.40;1.75;;;;;;;;;;5047822;28;20301;-88
2023/03/30 07:33:11;;;;;;;2.00;1.83;;;;;;;;;;5042679;28;20388;-87
2023/03/30 07:35:44;;;;;;;1.48;1.30;;;;;;;;;;5052401;28;20197;-87
2023/03/30 07:38:13;;;;;;;3.63;1.45;;;;;;;;;;5050073;28;20288;-87
2023/03/30 07:40:41;;;;;;;2.22;1.77;;;;;;;;;;5044488;28;20196;-86
2023/03/30 07:43:15;;;;;;;2.85;1.38;;;;;;;;;;5054196;28;20512;-86
2023/03/30 07:45:45;;;;;;;3.55;1.75;;;;;;;;;;5051373;28;20297;-87
2023/03/30 07:48:12;;;;;;;2.80;1.70;;;;;;;;;;5052264;28;20288;-87
2023/03/30 07:50:40;;;;;;;2.67;1.58;;;;;;;;;;5053667;28;20686;-86
2023/03/30 07:53:08;;;;;;;2.85;1.58;;;;;;;;;;5053215;28;20229;-87
2023/03/30 07:55:36;;;;;;;1.83;1.50;;;;;;;;;;5050132;28;20194;-87
2023/03/30 07:58:04;;;;;;;2.00;1.60;;;;;;;;;;5047659;28;20202;-87
2023/03/30 08:00:33;;;;;;;3.72;1.60;;;;;;;;;;5058076;28;20206;-87
2023/03/30 08:03:03;;;;;;;2.45;2.15;;;;;;;;;;5059271;28;20253;-87
2023/03/30 08:05:31;;;;;;;2.80;1.85;;;;;;;;;;5059414;28;20718;-87
2023/03/30 08:08:06;;;;;;;1.75;1.60;;;;;;;;;;5058336;28;20569;-87
2023/03/30 08:10:34;;;;;;;2.08;1.58;;;;;;;;;;5057968;28;20217;-87
2023/03/30 08:15:31;;;;;;;1.70;1.60;;;;;;;;;;5074017;28;20209;-83
2023/03/30 08:18:03;;;;;;;2.58;2.15;;;;;;;;;;5064975;28;20204;-81
2023/03/30 08:20:30;;;;;;;2.35;1.65;;;;;;;;;;5051008;28;20224;-82
2023/03/30 08:22:58;;;;;;;1.60;1.50;;;;;;;;;;5054062;28;20198;-82
2023/03/30 08:25:26;;;;;;;4.07;1.73;;;;;;;;;;5061858;28;20205;-82
2023/03/30 08:27:55;;;;;;;2.25;1.80;;;;;;;;;;5057503;28;20286;-82
2023/03/30 08:30:22;;;;;;;3.40;2.30;;;;;;;;;;5059516;28;20236;-81
2023/03/30 08:32:51;;;;;;;2.53;1.70;;;;;;;;;;5056851;28;20289;-82
2023/03/30 08:35:20;;;;;;;3.38;1.98;;;;;;;;;;5061662;28;20658;-82
2023/03/30 08:37:48;;;;;;;2.65;2.40;;;;;;;;;;5059158;28;20247;-81
2023/03/30 08:40:16;;;;;;;3.47;1.80;;;;;;;;;;5046962;28;20217;-82
2023/03/30 08:43:07;;;;;;;3.70;2.25;;;;;;;;;;5061909;28;20307;-83
2023/03/30 08:45:37;;;;;;;2.58;2.13;;;;;;;;;;5053679;28;20712;-82
2023/03/30 08:48:12;;;;;;;4.78;1.95;;;;;;;;;;5047441;28;20205;-82
2023/03/30 08:50:40;;;;;;;4.30;2.08;;;;;;;;;;5052762;28;20223;-81
2023/03/30 08:53:08;;;;;;;5.20;1.80;;;;;;;;;;5050661;28;20197;-83
2023/03/30 08:55:43;;;;;;;4.47;2.53;;;;;;;;;;5052314;28;20207;-82
2023/03/30 08:58:15;;;;;;;2.80;1.90;;;;;;;;;;5063803;28;20204;-82
2023/03/30 09:00:46;;;;;;;2.58;2.10;;;;;;;;;;5053955;28;20289;-82
2023/03/30 09:03:23;;;;;;;3.47;1.90;;;;;;;;;;5058392;28;20215;-83
2023/03/30 09:05:55;;;;;;;4.25;1.90;;;;;;;;;;5055598;28;20276;-84
2023/03/30 09:08:27;;;;;;;6.35;2.50;;;;;;;;;;5042185;28;20217;-83
2023/03/30 09:10:59;;;;;;;2.50;1.95;;;;;;;;;;5047077;28;20222;-83
2023/03/30 09:13:31;;;;;;;2.35;1.80;;;;;;;;;;5054280;28;20230;-83
2023/03/30 09:16:02;;;;;;;3.47;1.80;;;;;;;;;;5061829;28;20197;-84
2023/03/30 09:18:34;;;;;;;2.53;1.80;;;;;;;;;;5051868;28;20223;-83
2023/03/30 09:21:04;;;;;;;2.85;1.70;;;;;;;;;;5058621;28;20204;-83
2023/03/30 09:23:33;;;;;;;2.60;1.65;;;;;;;;;;5060504;28;20266;-83
2023/03/30 09:26:12;;;;;;;2.55;1.38;;;;;;;;;;5055548;28;20236;-83
2023/03/30 09:28:47;;;;;;;2.65;1.80;;;;;;;;;;5049128;28;20221;-83
2023/03/30 09:31:20;;;;;;;5.47;2.90;;;;;;;;;;5060247;28;20287;-83
2023/03/30 09:33:57;;;;;;;3.47;2.15;;;;;;;;;;5050636;28;20216;-83
2023/03/30 09:36:30;;;;;;;2.22;1.50;;;;;;;;;;5061471;28;20285;-84
2023/03/30 09:38:57;;;;;;;3.80;2.20;;;;;;;;;;5058832;28;20220;-83
2023/03/30 09:41:39;;;;;;;3.90;2.05;;;;;;;;;;5066892;28;20205;-83
2023/03/30 09:44:13;;;;;;;3.85;2.28;;;;;;;;;;5056158;28;20213;-83
2023/03/30 09:46:40;;;;;;;4.40;2.40;;;;;;;;;;5054074;28;20197;-83
2023/03/30 09:49:17;;;;;;;2.10;1.55;;;;;;;;;;5048821;28;20248;-82
2023/03/30 09:52:01;;;;;;;5.40;1.80;;;;;;;;;;5063402;28;20255;-83
2023/03/30 09:54:36;;;;;;;6.93;2.92;;;;;;;;;;5060050;28;20214;-82
2023/03/30 09:57:05;;;;;;;2.42;1.95;;;;;;;;;;5047834;28;20209;-82
2023/03/30 09:59:35;;;;;;;2.53;1.77;;;;;;;;;;5063617;28;20208;-82
2023/03/30 10:02:20;;;;;;;2.45;1.70;;;;;;;;;;5061836;28;20292;-82
2023/03/30 10:05:05;;;;;;;2.53;1.63;;;;;;;;;;5051434;28;20204;-81
2023/03/30 10:07:36;;;;;;;1.73;1.48;;;;;;;;;;5065688;28;20212;-82
2023/03/30 10:10:16;;;;;;;3.85;2.50;;;;;;;;;;5060124;28;20228;-84
2023/03/30 10:12:44;;;;;;;6.13;2.40;;;;;;;;;;5058907;28;20196;-82
2023/03/30 10:15:17;;;;;;;2.90;1.48;;;;;;;;;;5063243;28;20239;-82
2023/03/30 10:17:47;;;;;;;2.78;1.70;;;;;;;;;;5049958;28;20193;-83
2023/03/30 10:20:24;;;;;;;1.67;1.50;;;;;;;;;;5052003;28;20294;-83
2023/03/30 10:22:55;;;;;;;3.92;2.15;;;;;;;;;;5050065;28;20237;-82
2023/03/30 10:25:26;;;;;;;3.08;1.60;;;;;;;;;;5053526;28;20202;-82
2023/03/30 10:27:58;;;;;;;3.00;1.67;;;;;;;;;;5035075;28;20214;-83
2023/03/30 10:30:28;;;;;;;1.40;1.30;;;;;;;;;;5048249;28;20276;-82
2023/03/30 10:32:58;;;;;;;4.10;2.13;;;;;;;;;;5051354;28;20204;-82
2023/03/30 10:35:33;;;;;;;1.92;1.40;;;;;;;;;;5060811;28;20202;-82
2023/03/30 10:38:02;;;;;;;2.75;2.10;;;;;;;;;;5048234;28;20228;-82
2023/03/30 10:40:36;;;;;;;4.80;2.22;;;;;;;;;;5054862;28;20351;-83
2023/03/30 10:43:06;;;;;;;2.58;1.88;;;;;;;;;;5048556;28;20227;-83
2023/03/30 10:45:41;;;;;;;2.03;1.45;;;;;;;;;;5055398;28;20201;-82
2023/03/30 10:48:48;;;;;;;2.75;2.00;;;;;;;;;;5048078;28;20205;-82
2023/03/30 10:51:27;;;;;;;3.08;1.90;;;;;;;;;;5024128;28;20222;-83
2023/03/30 10:54:02;;;;;;;5.68;2.50;;;;;;;;;;5048959;28;20212;-83
2023/03/30 10:56:35;;;;;;;6.97;2.00;;;;;;;;;;5050647;28;20215;-83
2023/03/30 10:59:29;;;;;;;1.48;1.35;;;;;;;;;;5049506;28;20226;-83
2023/03/30 11:02:18;;;;;;;2.63;1.63;;;;;;;;;;5040978;28;20734;-83
2023/03/30 11:04:48;;;;;;;1.77;1.67;;;;;;;;;;5036548;28;20281;-83
2023/03/30 11:07:23;;;;;;;4.88;1.77;;;;;;;;;;5038871;28;20205;-82
2023/03/30 11:09:55;;;;;;;1.83;1.60;;;;;;;;;;5046466;28;20220;-83
2023/03/30 11:12:26;;;;;;;1.55;1.40;;;;;;;;;;5050704;28;20226;-83
2023/03/30 11:14:58;;;;;;;1.55;1.45;;;;;;;;;;5049878;28;20201;-83
2023/03/30 11:17:29;;;;;;;1.63;1.20;;;;;;;;;;5049809;28;20285;-82
2023/03/30 11:19:59;;;;;;;1.23;1.00;;;;;;;;;;5049066;28;20705;-83
2023/03/30 11:22:36;;;;;;;1.80;1.55;;;;;;;;;;5040240;28;20651;-83
2023/03/30 11:25:15;;;;;;;1.45;1.27;;;;;;;;;;5045850;28;20633;-83
2023/03/30 11:27:53;;;;;;;2.17;1.23;;;;;;;;;;5033793;28;20284;-82
2023/03/30 11:30:24;;;;;;;1.02;0.77;;;;;;;;;;5057052;28;20225;-82
2023/03/30 11:32:56;;;;;;;2.50;1.10;;;;;;;;;;5049055;28;20315;-82
2023/03/30 11:35:31;;;;;;;1.63;1.00;;;;;;;;;;5054035;28;20222;-82
2023/03/30 11:38:10;;;;;;;1.05;0.93;;;;;;;;;;5048337;28;20229;-82
2023/03/30 11:40:44;;;;;;;1.60;1.27;;;;;;;;;;5045950;28;20209;-82
2023/03/30 11:43:12;;;;;;;2.00;1.75;;;;;;;;;;5052056;28;20229;-82
2023/03/30 11:45:54;;;;;;;3.80;2.05;;;;;;;;;;5051314;28;20651;-82
2023/03/30 11:48:53;;;;;;;15.65;13.35;;;;;;;;;;5054960;28;20205;-81
2023/03/30 11:51:38;;;;;;;2.75;2.55;;;;;;;;;;5051665;28;20607;-82
2023/03/30 11:54:25;;;;;;;2.70;2.40;;;;;;;;;;5043486;28;20194;-82
2023/03/30 11:57:01;;;;;;;1.30;1.00;;;;;;;;;;5059468;28;20284;-81
2023/03/30 11:59:34;;;;;;;1.85;1.00;;;;;;;;;;5070196;28;20223;-82
2023/03/30 12:02:14;;;;;;;1.17;0.70;;;;;;;;;;5069698;28;20284;-82
2023/03/30 12:04:48;;;;;;;0.57;0.57;;;;;;;;;;5060729;28;20205;-82
2023/03/30 12:07:28;;;;;;;1.30;1.02;;;;;;;;;;5062370;28;20194;-82
2023/03/30 12:10:01;;;;;;;3.95;0.73;;;;;;;;;;5064150;28;20284;-82
2023/03/30 12:12:35;;;;;;;0.73;0.52;;;;;;;;;;5061754;28;20256;-80
2023/03/30 12:15:17;;;;;;;0.60;0.60;;;;;;;;;;5062471;28;20300;-82
2023/03/30 12:17:51;;;;;;;1.20;0.70;;;;;;;;;;5056264;28;20323;-82
2023/03/30 12:20:30;;;;;;;0.52;0.52;;;;;;;;;;5066348;28;20303;-82
2023/03/30 12:23:02;;;;;;;0.68;0.63;;;;;;;;;;5062828;28;20197;-81
2023/03/30 12:25:40;;;;;;;0.50;0.50;;;;;;;;;;5063023;28;20205;-83
2023/03/30 12:28:13;;;;;;;0.60;0.60;;;;;;;;;;5064515;28;20232;-82
2023/03/30 12:47:08;;;;;;;0.63;0.55;;;;;;;;;;4125862;22;20291;-82
2023/03/30 12:49:51;;;;;;;0.47;0.47;;;;;;;;;;5048731;28;20256;-82
2023/03/30 12:52:30;;;;;;;0.22;0.22;;;;;;;;;;5049758;28;20222;-82
2023/03/30 12:55:20;;;;;;;0.73;0.57;;;;;;;;;;5047466;28;20221;-82
2023/03/30 12:58:08;;;;;;;0.73;0.70;;;;;;;;;;5044507;28;20280;-81
2023/03/30 13:00:58;;;;;;;1.85;1.00;;;;;;;;;;5047105;28;20228;-83
2023/03/30 13:03:48;;;;;;;3.03;0.80;;;;;;;;;;5058721;28;20289;-82
2023/03/30 13:06:24;;;;;;;1.70;1.02;;;;;;;;;;5057274;28;20194;-81
2023/03/30 13:08:57;;;;;;;2.05;1.52;;;;;;;;;;5049151;28;20290;-83
2023/03/30 13:11:24;;;;;;;1.30;0.82;;;;;;;;;;5252112;22;20235;-83
2023/03/30 13:13:57;;;;;;;3.03;1.02;;;;;;;;;;5068283;28;20303;-81
2023/03/30 13:17:09;;;;;;;1.48;1.08;;;;;;;;;;5059925;28;20203;-82
2023/03/30 13:20:04;;;;;;;1.27;0.93;;;;;;;;;;5066654;28;20216;-83
2023/03/30 13:22:33;;;;;;;1.85;1.27;;;;;;;;;;5075693;22;20243;-84
2023/03/30 13:25:03;;;;;;;1.88;1.10;;;;;;;;;;5095185;28;20203;-83
2023/03/30 13:27:34;;;;;;;1.85;1.10;;;;;;;;;;5087338;28;20200;-83
2023/03/30 13:30:05;;;;;;;2.88;1.60;;;;;;;;;;5096401;28;20207;-83
2023/03/30 13:33:11;;;;;;;1.83;0.90;;;;;;;;;;5097160;28;20224;-82
2023/03/30 13:35:56;;;;;;;1.42;0.95;;;;;;;;;;5089429;28;20374;-83
2023/03/30 13:38:56;;;;;;;1.40;1.30;;;;;;;;;;5097757;28;20196;-81
2023/03/30 13:41:35;;;;;;;5.03;1.85;;;;;;;;;;5103592;28;20253;-82
2023/03/30 13:44:16;;;;;;;2.00;1.42;;;;;;;;;;5108236;28;20283;-85
2023/03/30 13:46:49;;;;;;;2.40;1.10;;;;;;;;;;5098802;28;20223;-82
2023/03/30 13:49:31;;;;;;;1.70;1.02;;;;;;;;;;5105628;28;20260;-82
2023/03/30 13:52:05;;;;;;;2.47;1.45;;;;;;;;;;5105232;28;20286;-82
2023/03/30 13:54:34;;;;;;;2.55;1.15;;;;;;;;;;5099925;28;20269;-83
2023/03/30 13:57:06;;;;;;;1.35;1.00;;;;;;;;;;5083051;28;20272;-83
2023/03/30 13:59:36;;;;;;;0.82;0.77;;;;;;;;;;5089203;28;20561;-83
2023/03/30 14:02:05;;;;;;;1.20;0.90;;;;;;;;;;5097251;28;20224;-83
2023/03/30 14:04:35;;;;;;;1.23;1.13;;;;;;;;;;5089896;28;20224;-83
2023/03/30 14:07:16;;;;;;;1.48;0.82;;;;;;;;;;5112548;28;20197;-82
2023/03/30 14:10:01;;;;;;;1.67;1.00;;;;;;;;;;5095843;28;20188;-82
2023/03/30 14:12:29;;;;;;;2.22;0.88;;;;;;;;;;5088758;28;20243;-83
2023/03/30 14:14:57;;;;;;;1.17;0.90;;;;;;;;;;5097653;28;20197;-83
2023/03/30 14:17:25;;;;;;;2.70;1.20;;;;;;;;;;5079424;28;20271;-83
2023/03/30 14:20:08;;;;;;;2.67;1.58;;;;;;;;;;5092921;28;20220;-83
2023/03/30 14:22:41;;;;;;;1.65;1.10;;;;;;;;;;5093164;28;20262;-83
2023/03/30 14:25:25;;;;;;;1.13;1.00;;;;;;;;;;5098093;28;20668;-83
2023/03/30 14:27:55;;;;;;;1.27;0.80;;;;;;;;;;5097347;28;20196;-83
2023/03/30 14:30:28;;;;;;;2.10;1.17;;;;;;;;;;5096697;28;20201;-83
2023/03/30 14:33:09;;;;;;;1.95;1.05;;;;;;;;;;5094951;28;20220;-83
2023/03/30 14:35:41;;;;;;;1.80;1.35;;;;;;;;;;5085796;28;20208;-82
2023/03/30 14:38:15;;;;;;;1.48;0.90;;;;;;;;;;5093943;28;20560;-82
2023/03/30 14:40:43;;;;;;;1.77;1.33;;;;;;;;;;5095836;28;20209;-83
2023/03/30 14:43:14;;;;;;;3.83;1.17;;;;;;;;;;5095940;28;20243;-83
2023/03/30 14:45:42;;;;;;;3.17;1.17;;;;;;;;;;5094978;28;20239;-83
2023/03/30 14:48:20;;;;;;;1.33;1.00;;;;;;;;;;5086821;28;20582;-83
2023/03/30 14:50:48;;;;;;;4.20;1.13;;;;;;;;;;5088810;28;20557;-83
2023/03/30 14:53:23;;;;;;;1.00;0.93;;;;;;;;;;5096897;28;20235;-83
2023/03/30 14:55:55;;;;;;;2.05;0.73;;;;;;;;;;5108679;28;21383;-83
2023/03/30 14:58:25;;;;;;;1.13;0.80;;;;;;;;;;5091390;28;20200;-83
2023/03/30 15:00:57;;;;;;;1.45;0.93;;;;;;;;;;5089511;28;20251;-82
2023/03/30 15:03:27;;;;;;;0.52;0.52;;;;;;;;;;5096419;28;20269;-83
2023/03/30 15:05:54;;;;;;;0.50;0.50;;;;;;;;;;5093990;28;20226;-83
2023/03/30 15:08:28;;;;;;;0.93;0.80;;;;;;;;;;5092993;28;20740;-83
2023/03/30 15:10:58;;;;;;;0.70;0.70;;;;;;;;;;5096189;28;20242;-83
2023/03/30 15:13:31;;;;;;;2.42;0.85;;;;;;;;;;5094754;28;20239;-83
2023/03/30 15:16:00;;;;;;;1.13;0.50;;;;;;;;;;5096264;28;20627;-82
2023/03/30 15:18:29;;;;;;;0.40;0.40;;;;;;;;;;5087920;28;20207;-83
2023/03/30 15:20:57;;;;;;;0.52;0.52;;;;;;;;;;5090919;28;20200;-83
2023/03/30 15:23:37;;;;;;;0.50;0.50;;;;;;;;;;5095932;28;20258;-83
2023/03/30 15:26:06;;;;;;;0.40;0.40;;;;;;;;;;5095420;28;20224;-83
2023/03/30 15:28:35;;;;;;;0.30;0.30;;;;;;;;;;5086517;28;20581;-83
2023/03/30 15:31:03;;;;;;;2.00;0.75;;;;;;;;;;5088506;28;20747;-83
2023/03/30 15:33:36;;;;;;;0.77;0.60;;;;;;;;;;5077873;28;20292;-83
2023/03/30 15:36:11;;;;;;;0.63;0.63;;;;;;;;;;5083512;28;20208;-82